Amboy, Minnesota
Current Conditions -  °F | °C
As of 10:55 PM on Thursday 30 Oct 2014 (Local Time) from KJYG Reporting Station
Broken Clouds Broken Clouds  
Wind Chill: 25°   Ceiling: 4400
Heat Index: 36°   Visibility: 10mi
Dew Point: 19°   Wind: 18mph
Humidity: 52%   Direction: 330°NNW
Pressure: 30.38"   Gusts: 26mph
Location:  43.89°N, 94.16°W
Report Text: KJYG 310355Z AUTO 33016G23KT 10SM BKN044 02/M07 A3038 RMK AO2
Loading
Personal Weather Stations






























Interactive Weather Map New forecast layout! Learn more

10-Day Weather Forecast

Advertisements
Track Severe Weather on mobile